createdAt,value
2022-12-14T00:00:51.843Z,0
2022-12-14T00:01:56.043Z,0
2022-12-14T00:02:51.545Z,0
2022-12-14T00:03:51.494Z,0
2022-12-14T00:04:51.488Z,0
2022-12-14T00:05:51.196Z,0
2022-12-14T00:06:51.170Z,0
2022-12-14T00:07:56.283Z,0
2022-12-14T00:08:51.133Z,0
2022-12-14T00:09:51.127Z,0
2022-12-14T00:10:51.084Z,0
2022-12-14T00:11:50.802Z,0
2022-12-14T00:12:51.046Z,0
2022-12-14T00:13:56.277Z,0
2022-12-14T00:14:50.723Z,0
2022-12-14T00:15:50.908Z,0
2022-12-14T00:16:51.219Z,0
2022-12-14T00:17:50.919Z,0
2022-12-14T00:18:50.895Z,0
2022-12-14T00:19:55.584Z,0
2022-12-14T00:20:50.859Z,0
2022-12-14T00:21:51.086Z,0
2022-12-14T00:22:50.798Z,0
2022-12-14T00:23:50.833Z,0
2022-12-14T00:24:50.764Z,0
2022-12-14T00:25:56.224Z,0
2022-12-14T00:26:50.711Z,0
2022-12-14T00:27:50.698Z,0
2022-12-14T00:28:50.927Z,0
2022-12-14T00:29:50.391Z,0
2022-12-14T00:30:53.921Z,0
2022-12-14T00:31:55.506Z,0
2022-12-14T00:32:50.639Z,0
2022-12-14T00:33:50.299Z,0
2022-12-14T00:34:50.526Z,0
2022-12-14T00:35:50.756Z,0
2022-12-14T00:36:50.234Z,0
2022-12-14T00:37:55.490Z,0
2022-12-14T00:38:50.687Z,0
2022-12-14T00:39:50.717Z,0
2022-12-14T00:40:50.650Z,0
2022-12-14T00:41:50.394Z,0
2022-12-14T00:42:50.089Z,0
2022-12-14T00:43:54.515Z,0
2022-12-14T00:44:50.051Z,0
2022-12-14T00:45:50.277Z,0
2022-12-14T00:46:50.504Z,0
2022-12-14T00:47:50.234Z,0
2022-12-14T00:48:49.986Z,0
2022-12-14T00:49:52.999Z,0
2022-12-14T00:50:55.293Z,0
2022-12-14T00:51:50.139Z,0
2022-12-14T00:52:50.115Z,0
2022-12-14T00:53:50.351Z,0
2022-12-14T00:54:50.069Z,0
2022-12-14T00:55:54.497Z,0
2022-12-14T00:56:50.029Z,0
2022-12-14T00:57:50.029Z,0
2022-12-14T00:58:49.984Z,0
2022-12-14T00:59:49.955Z,0
2022-12-14T01:00:50.426Z,0
2022-12-14T01:01:53.737Z,0
2022-12-14T01:02:50.130Z,0
2022-12-14T01:03:50.322Z,0
2022-12-14T01:04:50.131Z,0
2022-12-14T01:05:56.176Z,0
2022-12-14T01:06:49.535Z,0
2022-12-14T01:07:53.514Z,0
2022-12-14T01:08:50.027Z,0
2022-12-14T01:09:49.737Z,0
2022-12-14T01:10:49.442Z,0
2022-12-14T01:11:49.482Z,0
2022-12-14T01:12:49.935Z,0
2022-12-14T01:13:54.493Z,0
2022-12-14T01:14:49.360Z,0
2022-12-14T01:15:50.119Z,0
2022-12-14T01:16:49.325Z,0
2022-12-14T01:17:49.292Z,0
2022-12-14T01:18:49.517Z,0
2022-12-14T01:19:54.100Z,0
2022-12-14T01:20:49.491Z,0
2022-12-14T01:21:49.718Z,0
2022-12-14T01:22:48.927Z,0
2022-12-14T01:23:49.430Z,0
2022-12-14T01:24:49.388Z,0
2022-12-14T01:25:53.097Z,0
2022-12-14T01:26:49.801Z,0
2022-12-14T01:27:49.375Z,0
2022-12-14T01:28:49.301Z,0
2022-12-14T01:29:49.569Z,0
2022-12-14T01:30:49.052Z,0
2022-12-14T01:31:53.135Z,0
2022-12-14T01:32:49.455Z,0
2022-12-14T01:33:49.199Z,0
2022-12-14T01:34:48.655Z,0
2022-12-14T01:35:49.141Z,0
2022-12-14T01:36:48.881Z,0
2022-12-14T01:38:20.912Z,0
2022-12-14T01:38:49.079Z,0
2022-12-14T01:39:49.047Z,0
2022-12-14T01:40:48.778Z,0
2022-12-14T01:41:49.267Z,0
2022-12-14T01:42:48.976Z,0
2022-12-14T01:43:53.420Z,0
2022-12-14T01:44:48.696Z,0
2022-12-14T01:45:48.956Z,0
2022-12-14T01:46:49.131Z,0
2022-12-14T01:47:48.616Z,0
2022-12-14T01:48:48.857Z,0
2022-12-14T01:49:51.938Z,0
2022-12-14T01:50:48.785Z,0
2022-12-14T01:51:48.770Z,0
2022-12-14T01:52:49.029Z,0
2022-12-14T01:53:48.993Z,0
2022-12-14T01:54:55.571Z,0
2022-12-14T01:55:53.881Z,0
2022-12-14T01:56:48.171Z,0
2022-12-14T01:57:48.648Z,0
2022-12-14T01:58:48.874Z,0
2022-12-14T01:59:48.891Z,0
2022-12-14T02:00:48.555Z,0
2022-12-14T02:01:53.352Z,0
2022-12-14T02:02:49.118Z,0
2022-12-14T02:03:48.266Z,0
2022-12-14T02:04:48.219Z,0
2022-12-14T02:05:48.447Z,0
2022-12-14T02:06:48.433Z,0
2022-12-14T02:07:53.420Z,0
2022-12-14T02:08:48.154Z,0
2022-12-14T02:09:48.370Z,0
2022-12-14T02:10:48.615Z,0
2022-12-14T02:11:48.582Z,0
2022-12-14T02:12:48.298Z,0
2022-12-14T02:13:51.245Z,0
2022-12-14T02:14:48.002Z,0
2022-12-14T02:15:48.798Z,0
2022-12-14T02:16:47.958Z,0
2022-12-14T02:17:48.208Z,0
2022-12-14T02:18:48.160Z,0
2022-12-14T02:19:48.992Z,0
2022-12-14T02:20:47.853Z,0
2022-12-14T02:21:47.847Z,0
2022-12-14T02:22:47.823Z,0
2022-12-14T02:23:47.805Z,0
2022-12-14T02:24:48.058Z,0
2022-12-14T02:25:53.724Z,0
2022-12-14T02:26:47.990Z,0
2022-12-14T02:27:48.214Z,0
2022-12-14T02:28:47.931Z,0
2022-12-14T02:29:47.911Z,0
2022-12-14T02:30:47.909Z,0
2022-12-14T02:31:51.271Z,0
2022-12-14T02:32:47.582Z,0
2022-12-14T02:33:48.121Z,0
2022-12-14T02:34:47.545Z,0
2022-12-14T02:35:47.769Z,0
2022-12-14T02:36:47.504Z,0
2022-12-14T02:37:51.644Z,0
2022-12-14T02:38:47.976Z,0
2022-12-14T02:39:47.428Z,0
2022-12-14T02:40:47.679Z,0
2022-12-14T02:41:47.655Z,0
2022-12-14T02:42:47.369Z,0
2022-12-14T02:43:49.510Z,0
2022-12-14T02:44:47.575Z,0
2022-12-14T02:45:47.828Z,0
2022-12-14T02:46:53.318Z,0
2022-12-14T02:47:47.782Z,0
2022-12-14T02:48:47.226Z,0
2022-12-14T02:49:54.396Z,0
2022-12-14T02:50:47.175Z,0
2022-12-14T02:51:47.436Z,0
2022-12-14T02:52:47.140Z,0
2022-12-14T02:53:47.358Z,0
2022-12-14T02:54:47.343Z,0
2022-12-14T02:55:47.325Z,0
2022-12-14T02:56:47.576Z,0
2022-12-14T02:57:47.022Z,0
2022-12-14T02:58:47.250Z,0
2022-12-14T02:59:47.504Z,0
2022-12-14T03:00:47.665Z,0
2022-12-14T03:01:52.439Z,0
2022-12-14T03:02:48.273Z,0
2022-12-14T03:03:47.237Z,0
2022-12-14T03:04:46.890Z,0
2022-12-14T03:05:47.184Z,0
2022-12-14T03:06:46.815Z,0
2022-12-14T03:07:51.197Z,0
2022-12-14T03:08:47.027Z,0
2022-12-14T03:09:47.001Z,0
2022-12-14T03:10:46.979Z,0
2022-12-14T03:11:47.220Z,0
2022-12-14T03:12:46.712Z,0
2022-12-14T03:13:46.910Z,0
2022-12-14T03:14:46.881Z,0
2022-12-14T03:15:46.609Z,0
2022-12-14T03:16:47.321Z,0
2022-12-14T03:17:51.584Z,0
2022-12-14T03:18:46.823Z,0
2022-12-14T03:19:51.084Z,0
2022-12-14T03:20:46.243Z,0
2022-12-14T03:21:46.520Z,0
2022-12-14T03:22:46.955Z,0
2022-12-14T03:23:46.947Z,0
2022-12-14T03:24:46.672Z,0
2022-12-14T03:25:46.886Z,0
2022-12-14T03:26:52.712Z,0
2022-12-14T03:27:46.354Z,0
2022-12-14T03:28:46.345Z,0
2022-12-14T03:29:46.541Z,0
2022-12-14T03:31:07.079Z,0
2022-12-14T03:31:51.257Z,0
2022-12-14T03:32:46.471Z,0
2022-12-14T03:50:36.439Z,0
2022-12-14T03:51:36.335Z,0
2022-12-14T03:52:35.789Z,0
2022-12-14T03:53:36.377Z,0
2022-12-14T03:54:35.983Z,0
2022-12-14T03:55:35.977Z,0
2022-12-14T03:56:35.949Z,0
2022-12-14T03:57:35.937Z,0
2022-12-14T03:58:36.149Z,0
2022-12-14T03:59:35.641Z,0
2022-12-14T04:00:35.865Z,0
2022-12-14T04:01:36.439Z,0
2022-12-14T04:02:43.322Z,0
2022-12-14T04:03:36.075Z,0
2022-12-14T04:04:35.759Z,0
2022-12-14T04:05:35.992Z,0
2022-12-14T04:06:36.056Z,0
2022-12-14T04:07:35.954Z,0
2022-12-14T04:08:35.920Z,0
2022-12-14T04:09:35.649Z,0
2022-12-14T04:10:35.748Z,0
2022-12-14T04:11:35.353Z,0
2022-12-14T04:12:35.871Z,0
2022-12-14T04:13:36.045Z,0
2022-12-14T04:14:35.560Z,0
2022-12-14T04:15:36.055Z,0
2022-12-14T04:16:35.798Z,0
2022-12-14T04:17:36.003Z,0
2022-12-14T04:18:35.790Z,0
2022-12-14T04:19:35.479Z,0
2022-12-14T04:20:35.682Z,0
2022-12-14T04:21:35.943Z,0
2022-12-14T04:22:35.995Z,0
2022-12-14T04:23:35.807Z,0
2022-12-14T04:24:35.611Z,0
2022-12-14T04:25:35.313Z,0
2022-12-14T04:26:35.797Z,0
2022-12-14T04:27:35.533Z,0
2022-12-14T04:28:35.504Z,0
2022-12-14T04:29:35.750Z,0
2022-12-14T04:30:35.708Z,0
2022-12-14T04:31:35.592Z,0
2022-12-14T04:32:35.527Z,0
2022-12-14T04:33:36.671Z,0
2022-12-14T04:34:35.618Z,0
2022-12-14T04:35:35.602Z,0
2022-12-14T04:36:35.864Z,0
2022-12-14T04:37:35.303Z,0
2022-12-14T04:38:35.880Z,0
2022-12-14T04:39:35.247Z,0
2022-12-14T04:40:35.749Z,0
2022-12-14T04:41:35.483Z,0
2022-12-14T04:42:35.226Z,0
2022-12-14T04:43:35.809Z,0
2022-12-14T04:44:35.403Z,0
2022-12-14T04:45:35.660Z,0
2022-12-14T04:46:42.323Z,0
2022-12-14T04:47:35.713Z,0
2022-12-14T04:48:35.985Z,0
2022-12-14T04:49:35.176Z,0
2022-12-14T04:50:35.421Z,0
2022-12-14T04:51:35.368Z,0
2022-12-14T04:52:35.610Z,0
2022-12-14T04:53:36.039Z,0
2022-12-14T04:54:35.919Z,0
2022-12-14T04:55:35.541Z,0
2022-12-14T04:56:35.267Z,0
2022-12-14T04:57:35.498Z,0
2022-12-14T04:58:35.478Z,0
2022-12-14T04:59:35.702Z,0
2022-12-14T05:00:35.195Z,0
2022-12-14T05:01:35.918Z,0
2022-12-14T05:02:35.929Z,0
2022-12-14T05:03:36.574Z,0
2022-12-14T05:04:35.332Z,0
2022-12-14T05:05:35.053Z,0
2022-12-14T05:06:35.561Z,0
2022-12-14T05:07:34.764Z,0
2022-12-14T05:08:35.499Z,0
2022-12-14T05:09:35.214Z,0
2022-12-14T05:10:35.555Z,0
2022-12-14T05:11:59.704Z,0
2022-12-14T05:12:34.898Z,0
2022-12-14T05:13:36.336Z,0
2022-12-14T05:14:34.855Z,0
2022-12-14T05:15:34.820Z,0
2022-12-14T05:16:35.034Z,0
2022-12-14T05:17:35.042Z,0
2022-12-14T05:18:34.497Z,0
2022-12-14T05:19:34.987Z,0
2022-12-14T05:20:34.453Z,0
2022-12-14T05:21:35.216Z,0
2022-12-14T05:22:34.672Z,0
2022-12-14T05:23:35.845Z,0
2022-12-14T05:24:35.164Z,0
2022-12-14T05:25:35.126Z,0
2022-12-14T05:26:35.218Z,0
2022-12-14T05:27:35.068Z,0
2022-12-14T05:28:34.785Z,0
2022-12-14T05:29:34.767Z,0
2022-12-14T05:30:34.974Z,0
2022-12-14T05:31:34.968Z,0
2022-12-14T05:32:34.691Z,0
2022-12-14T05:33:35.638Z,0
2022-12-14T05:34:34.649Z,0
2022-12-14T05:35:34.113Z,0
2022-12-14T05:36:34.851Z,0
2022-12-14T05:37:34.589Z,0
2022-12-14T05:38:34.556Z,0
2022-12-14T05:39:34.802Z,0
2022-12-14T05:40:34.777Z,0
2022-12-14T05:41:34.743Z,0
2022-12-14T05:42:37.112Z,0
2022-12-14T05:43:35.522Z,0
2022-12-14T05:44:34.417Z,0
2022-12-14T05:45:34.406Z,0
2022-12-14T05:46:34.556Z,0
2022-12-14T05:47:34.360Z,0
2022-12-14T05:48:34.080Z,0
2022-12-14T05:49:34.090Z,0
2022-12-14T05:50:34.291Z,0
2022-12-14T05:51:34.013Z,0
2022-12-14T05:52:34.251Z,0
2022-12-14T05:53:35.166Z,0
2022-12-14T05:54:34.199Z,0
2022-12-14T05:55:33.941Z,0
2022-12-14T05:56:33.902Z,0
2022-12-14T05:57:34.128Z,0
2022-12-14T05:58:34.488Z,0
2022-12-14T05:59:34.088Z,0
2022-12-14T06:00:34.059Z,0
2022-12-14T06:01:34.345Z,0
2022-12-14T06:02:34.100Z,0
2022-12-14T06:03:34.868Z,0
2022-12-14T06:04:34.646Z,0
2022-12-14T06:05:34.943Z,0
2022-12-14T06:06:34.682Z,0
2022-12-14T06:07:35.403Z,0
2022-12-14T06:08:34.882Z,0
2022-12-14T06:09:34.088Z,0
2022-12-14T06:10:34.844Z,0
2022-12-14T06:11:34.820Z,0
2022-12-14T06:12:34.276Z,0
2022-12-14T06:13:35.069Z,0
2022-12-14T06:14:34.850Z,0
2022-12-14T06:15:41.121Z,0
2022-12-14T06:16:34.777Z,0
2022-12-14T06:17:34.674Z,0
2022-12-14T06:18:34.398Z,0
2022-12-14T06:19:34.135Z,0
2022-12-14T06:20:34.349Z,0
2022-12-14T06:21:35.185Z,0
2022-12-14T06:22:35.419Z,0
2022-12-14T06:23:35.766Z,0
2022-12-14T06:24:35.118Z,0
2022-12-14T06:25:35.102Z,0
2022-12-14T06:26:35.079Z,0
2022-12-14T06:27:35.062Z,0
2022-12-14T06:28:35.030Z,0
2022-12-14T06:29:34.997Z,0
2022-12-14T06:30:35.338Z,4
2022-12-14T06:31:34.993Z,4
2022-12-14T06:32:35.204Z,0
2022-12-14T06:33:35.542Z,4
2022-12-14T06:34:44.631Z,4
2022-12-14T06:35:34.877Z,8
2022-12-14T06:36:34.864Z,4
2022-12-14T06:37:34.821Z,4
2022-12-14T06:38:34.797Z,8
2022-12-14T06:39:34.292Z,8
2022-12-14T06:40:35.018Z,12
2022-12-14T06:41:34.735Z,12
2022-12-14T06:42:34.702Z,16
2022-12-14T06:43:35.554Z,16
2022-12-14T06:44:34.768Z,20
2022-12-14T06:45:34.998Z,20
2022-12-14T06:46:35.325Z,24
2022-12-14T06:47:34.696Z,28
2022-12-14T06:48:34.676Z,32
2022-12-14T06:49:34.389Z,36
2022-12-14T06:50:34.627Z,40
2022-12-14T06:51:34.615Z,44
2022-12-14T06:52:34.374Z,56
2022-12-14T06:53:35.683Z,60
2022-12-14T06:54:34.287Z,64
2022-12-14T06:55:34.798Z,72
2022-12-14T06:56:34.516Z,80
2022-12-14T06:57:34.216Z,88
2022-12-14T06:58:39.630Z,96
2022-12-14T06:59:34.473Z,104
2022-12-14T07:00:34.489Z,112
2022-12-14T07:01:34.715Z,124
2022-12-14T07:02:35.786Z,132
2022-12-14T07:03:35.944Z,144
2022-12-14T07:04:34.318Z,152
2022-12-14T07:05:34.280Z,168
2022-12-14T07:06:34.266Z,184
2022-12-14T07:07:34.498Z,192
2022-12-14T07:08:34.487Z,208
2022-12-14T07:09:34.198Z,220
2022-12-14T07:10:34.533Z,232
2022-12-14T07:11:34.154Z,252
2022-12-14T07:12:33.622Z,264
2022-12-14T07:13:35.526Z,280
2022-12-14T07:14:34.075Z,296
2022-12-14T07:15:34.345Z,308
2022-12-14T07:16:34.053Z,324
2022-12-14T07:17:34.274Z,340
2022-12-14T07:18:34.357Z,364
2022-12-14T07:19:33.716Z,380
2022-12-14T07:20:34.276Z,400
2022-12-14T07:21:33.666Z,420
2022-12-14T07:22:33.899Z,444
2022-12-14T07:23:36.788Z,472
2022-12-14T07:24:34.104Z,500
2022-12-14T07:25:33.572Z,532
2022-12-14T07:26:33.813Z,572
2022-12-14T07:27:33.797Z,608
2022-12-14T07:28:33.509Z,648
2022-12-14T07:29:41.040Z,676
2022-12-14T07:30:33.743Z,692
2022-12-14T07:31:34.368Z,708
2022-12-14T07:32:33.420Z,732
2022-12-14T07:33:34.936Z,760
2022-12-14T07:34:34.019Z,800
2022-12-14T07:35:34.333Z,844
2022-12-14T07:36:33.865Z,904
2022-12-14T07:37:33.570Z,972
2022-12-14T07:38:33.542Z,1044
2022-12-14T07:39:33.527Z,1120
2022-12-14T07:40:33.502Z,1180
2022-12-14T07:41:33.470Z,1236
2022-12-14T07:42:33.200Z,1276
2022-12-14T07:43:34.539Z,1304
2022-12-14T07:44:33.401Z,1320
2022-12-14T07:45:33.650Z,1340
2022-12-14T07:46:33.464Z,1360
2022-12-14T07:47:33.627Z,1380
2022-12-14T07:48:32.807Z,1416
2022-12-14T07:49:33.550Z,1464
2022-12-14T07:50:33.638Z,1520
2022-12-14T07:51:33.530Z,1596
2022-12-14T07:52:40.127Z,1688
2022-12-14T07:53:34.349Z,1744
2022-12-14T07:54:33.438Z,1764
2022-12-14T07:55:33.173Z,1752
2022-12-14T07:56:33.409Z,1716
2022-12-14T07:57:33.114Z,1672
2022-12-14T07:58:33.111Z,1640
2022-12-14T07:59:32.825Z,1616
2022-12-14T08:00:32.807Z,1588
2022-12-14T08:01:33.167Z,1576
2022-12-14T08:02:33.397Z,1576
2022-12-14T08:03:34.589Z,1600
2022-12-14T08:04:33.157Z,1628
2022-12-14T08:05:32.936Z,1648
2022-12-14T08:06:33.371Z,1660
2022-12-14T08:07:32.635Z,1668
2022-12-14T08:08:32.618Z,1672
2022-12-14T08:09:32.593Z,1680
2022-12-14T08:10:40.267Z,1724
2022-12-14T08:11:32.818Z,1788
2022-12-14T08:12:32.799Z,1892
2022-12-14T08:13:34.575Z,2048
2022-12-14T08:14:32.732Z,2232
2022-12-14T08:15:32.721Z,2452
2022-12-14T08:16:33.291Z,2692
2022-12-14T08:17:32.405Z,2924
2022-12-14T08:18:32.897Z,3060
2022-12-14T08:19:32.630Z,3096
2022-12-14T08:20:33.116Z,3096
2022-12-14T08:21:32.609Z,3092
2022-12-14T08:22:32.915Z,3092
2022-12-14T08:23:34.376Z,3052
2022-12-14T08:24:32.523Z,3008
2022-12-14T08:25:32.750Z,2964
2022-12-14T08:26:40.754Z,2916
2022-12-14T08:27:32.192Z,2892
2022-12-14T08:28:32.373Z,2848
2022-12-14T08:29:32.719Z,2820
2022-12-14T08:30:32.213Z,2872
2022-12-14T08:31:32.776Z,3056
2022-12-14T08:32:39.258Z,3400
2022-12-14T08:33:33.932Z,3740
2022-12-14T08:34:32.290Z,4072
2022-12-14T08:35:32.279Z,4332
2022-12-14T08:36:32.271Z,4500
2022-12-14T08:37:32.003Z,4632
2022-12-14T08:38:32.703Z,4716
2022-12-14T08:39:31.931Z,4720
2022-12-14T08:40:32.570Z,4632
2022-12-14T08:41:32.402Z,4488
2022-12-14T08:42:32.387Z,4328
2022-12-14T08:43:33.473Z,4172
2022-12-14T08:44:31.821Z,4040
2022-12-14T08:45:32.060Z,4004
2022-12-14T08:46:32.473Z,4108
2022-12-14T08:47:32.513Z,4332
2022-12-14T08:48:32.732Z,4520
2022-12-14T08:49:39.260Z,4656
2022-12-14T08:50:32.678Z,4780
2022-12-14T08:51:32.658Z,4776
2022-12-14T08:52:32.645Z,4652
2022-12-14T08:53:33.944Z,4532
2022-12-14T08:54:32.600Z,4512
2022-12-14T08:55:43.134Z,4568
2022-12-14T08:56:32.571Z,4692
2022-12-14T08:57:32.629Z,4896
2022-12-14T08:58:32.506Z,5068
2022-12-14T09:00:07.798Z,5136
2022-12-14T09:00:32.904Z,5116
2022-12-14T09:01:40.191Z,5064
2022-12-14T09:02:33.334Z,5084
2022-12-14T09:03:34.135Z,5176
2022-12-14T09:04:32.389Z,5288
2022-12-14T09:05:32.098Z,5400
2022-12-14T09:06:32.340Z,5536
2022-12-14T09:07:32.314Z,5704
2022-12-14T09:08:32.297Z,5868
2022-12-14T09:09:32.012Z,6008
2022-12-14T09:10:32.253Z,6136
2022-12-14T09:11:32.497Z,6312
2022-12-14T09:12:32.455Z,6528
2022-12-14T09:13:33.837Z,6708
2022-12-14T09:14:31.917Z,6784
2022-12-14T09:15:32.136Z,6776
2022-12-14T09:16:32.778Z,6748
2022-12-14T09:17:32.104Z,6852
2022-12-14T09:18:33.650Z,7136
2022-12-14T09:19:32.067Z,7424
2022-12-14T09:20:32.036Z,7488
2022-12-14T09:21:32.338Z,7376
2022-12-14T09:22:31.929Z,7180
2022-12-14T09:23:33.565Z,6944
2022-12-14T09:24:32.213Z,6764
2022-12-14T09:25:31.701Z,6652
2022-12-14T09:26:32.122Z,6616
2022-12-14T09:27:31.912Z,6664
2022-12-14T09:28:31.892Z,6628
2022-12-14T09:29:31.868Z,6416
2022-12-14T09:30:34.068Z,6080
2022-12-14T09:31:32.365Z,5772
2022-12-14T09:32:32.055Z,5524
2022-12-14T09:33:33.060Z,5328
2022-12-14T09:34:31.742Z,5116
2022-12-14T09:35:31.979Z,4896
2022-12-14T09:36:31.989Z,4676
2022-12-14T09:37:31.679Z,4420
2022-12-14T09:38:31.667Z,4108
2022-12-14T09:39:31.408Z,3808
2022-12-14T09:40:31.901Z,3572
2022-12-14T09:41:31.703Z,3444
2022-12-14T09:42:32.594Z,3408
2022-12-14T09:43:39.177Z,3416
2022-12-14T09:44:32.534Z,3404
2022-12-14T09:45:32.659Z,3372
2022-12-14T09:46:31.976Z,3336
2022-12-14T09:47:32.468Z,3260
2022-12-14T09:48:33.801Z,3192
2022-12-14T09:49:32.422Z,3164
2022-12-14T09:50:32.425Z,3180
2022-12-14T09:51:32.977Z,3208
2022-12-14T09:52:32.376Z,3248
2022-12-14T09:53:33.868Z,3312
2022-12-14T09:54:32.330Z,3364
2022-12-14T09:55:32.324Z,3372
2022-12-14T09:56:32.548Z,3308
2022-12-14T09:57:32.515Z,3272
2022-12-14T09:58:33.621Z,3336
2022-12-14T09:59:32.484Z,3344
2022-12-14T10:00:32.204Z,3244
2022-12-14T10:01:32.460Z,3088
2022-12-14T10:02:40.522Z,2880
2022-12-14T10:03:35.006Z,2720
2022-12-14T10:04:32.762Z,2604
2022-12-14T10:05:32.374Z,2528
2022-12-14T10:06:32.100Z,2520
2022-12-14T10:07:36.415Z,2576
2022-12-14T10:08:33.700Z,2664
2022-12-14T10:09:31.803Z,2764
2022-12-14T10:10:32.252Z,2844
2022-12-14T10:11:32.237Z,2896
2022-12-14T10:12:39.507Z,2912
2022-12-14T10:13:33.749Z,2912
2022-12-14T10:14:31.924Z,2932
2022-12-14T10:15:31.892Z,2976
2022-12-14T10:16:32.422Z,3016
2022-12-14T10:17:32.247Z,3052
2022-12-14T10:19:08.526Z,3060
2022-12-14T10:19:31.810Z,3044
2022-12-14T10:20:31.533Z,2952
2022-12-14T10:21:31.768Z,2824
2022-12-14T10:22:31.761Z,2712
2022-12-14T10:23:31.989Z,2640
2022-12-14T10:24:31.980Z,2608
2022-12-14T10:25:31.461Z,2604
2022-12-14T10:26:31.681Z,2612
2022-12-14T10:28:33.371Z,2668
2022-12-14T10:29:31.599Z,2724
2022-12-14T10:30:31.080Z,2816
2022-12-14T10:31:32.095Z,2896
2022-12-14T10:32:31.536Z,2944
2022-12-14T10:33:31.262Z,2968
2022-12-14T10:34:31.510Z,2976
2022-12-14T10:35:31.233Z,2972
2022-12-14T10:36:31.454Z,2964
2022-12-14T10:37:31.684Z,3012
2022-12-14T10:38:33.322Z,3120
2022-12-14T10:39:31.742Z,3240
2022-12-14T10:40:41.104Z,3316
2022-12-14T10:41:30.849Z,3304
2022-12-14T10:42:31.594Z,3268
2022-12-14T10:43:31.571Z,3232
2022-12-14T10:44:31.037Z,3184
2022-12-14T10:45:47.954Z,3056
2022-12-14T10:46:31.435Z,2980
2022-12-14T10:47:31.496Z,2884
2022-12-14T10:48:32.862Z,2808
2022-12-14T10:49:31.460Z,2748
2022-12-14T10:50:31.740Z,2684
2022-12-14T10:51:32.244Z,2568
2022-12-14T10:52:31.712Z,2440
2022-12-14T10:53:35.769Z,2372
2022-12-14T10:54:32.188Z,2364
2022-12-14T10:55:32.163Z,2376
2022-12-14T10:56:32.542Z,2448
2022-12-14T10:57:31.877Z,2596
2022-12-14T10:58:33.565Z,2764
2022-12-14T10:59:42.209Z,2856
2022-12-14T11:00:32.201Z,2892
2022-12-14T11:01:32.366Z,2936
2022-12-14T11:02:32.599Z,3040
2022-12-14T11:03:32.287Z,3256
2022-12-14T11:04:31.974Z,3540
2022-12-14T11:05:39.919Z,3820
2022-12-14T11:06:31.418Z,3932
2022-12-14T11:07:31.670Z,3936
2022-12-14T11:08:32.763Z,3944
2022-12-14T11:09:31.631Z,3936
2022-12-14T11:10:31.632Z,3836
2022-12-14T11:11:31.624Z,3692
2022-12-14T11:12:31.544Z,3572
2022-12-14T11:13:31.540Z,3456
2022-12-14T11:14:31.530Z,3324
2022-12-14T11:15:31.237Z,3196
2022-12-14T11:16:40.931Z,3068
2022-12-14T11:17:32.260Z,3000
2022-12-14T11:18:33.031Z,2956
2022-12-14T11:19:31.862Z,2952
2022-12-14T11:20:31.122Z,2980
2022-12-14T11:21:31.364Z,3048
2022-12-14T11:22:31.594Z,3148
2022-12-14T11:23:31.584Z,3248
2022-12-14T11:24:31.301Z,3344
2022-12-14T11:25:31.015Z,3420
2022-12-14T11:26:31.014Z,3500
2022-12-14T11:27:30.976Z,3568
2022-12-14T11:28:41.556Z,3576
2022-12-14T11:29:30.996Z,3552
2022-12-14T11:30:31.684Z,3496
2022-12-14T11:31:31.795Z,3388
2022-12-14T11:32:31.134Z,3236
2022-12-14T11:33:31.360Z,3036
2022-12-14T11:34:31.121Z,2832
2022-12-14T11:35:31.072Z,2688
2022-12-14T11:36:31.314Z,2604
2022-12-14T11:37:31.030Z,2604
2022-12-14T11:38:32.702Z,2656
2022-12-14T11:39:30.733Z,2692
2022-12-14T11:40:30.963Z,2692
2022-12-14T11:41:31.133Z,2680
2022-12-14T11:42:31.377Z,2736
2022-12-14T11:43:30.856Z,2824
2022-12-14T11:44:31.595Z,2888
2022-12-14T11:45:31.318Z,3032
2022-12-14T11:46:31.513Z,3192
2022-12-14T11:47:31.282Z,3356
2022-12-14T11:48:32.414Z,3428
2022-12-14T11:49:31.229Z,3372
2022-12-14T11:50:31.200Z,3352
2022-12-14T11:51:30.670Z,3364
2022-12-14T11:52:31.220Z,3392
2022-12-14T11:53:31.395Z,3444
2022-12-14T11:54:31.132Z,3560
2022-12-14T11:55:34.022Z,3676
2022-12-14T11:56:31.339Z,3728
2022-12-14T11:57:31.309Z,3748
2022-12-14T11:58:32.347Z,3704
2022-12-14T11:59:30.784Z,3680
2022-12-14T12:00:31.062Z,3688
2022-12-14T12:01:31.350Z,3740
2022-12-14T12:02:31.561Z,3884
2022-12-14T12:03:31.430Z,4044
2022-12-14T12:04:31.159Z,4108
2022-12-14T12:05:31.139Z,4140
2022-12-14T12:06:31.394Z,4204
2022-12-14T12:07:31.102Z,4224
2022-12-14T12:08:33.272Z,4148
2022-12-14T12:09:31.055Z,4124
2022-12-14T12:10:31.545Z,4128
2022-12-14T12:11:31.024Z,4124
2022-12-14T12:12:31.005Z,4124
2022-12-14T12:13:31.498Z,4144
2022-12-14T12:14:31.228Z,4092
2022-12-14T12:15:31.470Z,3932
2022-12-14T12:16:31.465Z,3776
2022-12-14T12:17:30.916Z,3628
2022-12-14T12:18:32.878Z,3444
2022-12-14T12:19:30.850Z,3292
2022-12-14T12:20:31.345Z,3256
2022-12-14T12:21:30.815Z,3312
2022-12-14T12:22:30.787Z,3360
2022-12-14T12:23:33.240Z,3296
2022-12-14T12:24:32.172Z,3160
2022-12-14T12:25:41.937Z,3160
2022-12-14T12:26:31.868Z,3284
2022-12-14T12:27:31.850Z,3420
2022-12-14T12:28:33.285Z,3420
2022-12-14T12:29:31.586Z,3360
2022-12-14T12:30:31.780Z,3324
2022-12-14T12:31:32.025Z,3256
2022-12-14T12:32:31.750Z,3108
2022-12-14T12:33:32.001Z,2956
2022-12-14T12:34:31.973Z,2840
2022-12-14T12:35:31.678Z,2784
2022-12-14T12:36:31.666Z,2760
2022-12-14T12:37:33.689Z,2764
2022-12-14T12:38:32.739Z,2724
2022-12-14T12:39:31.346Z,2568
2022-12-14T12:40:31.327Z,2372
2022-12-14T12:41:31.818Z,2208
2022-12-14T12:42:31.800Z,2044
2022-12-14T12:43:31.274Z,2012
2022-12-14T12:44:31.240Z,2160
2022-12-14T12:45:31.225Z,2412
2022-12-14T12:46:31.716Z,2684
2022-12-14T12:47:52.069Z,2928
2022-12-14T12:48:33.100Z,2968
2022-12-14T12:49:31.390Z,2980
2022-12-14T12:50:31.118Z,2956
2022-12-14T12:51:31.630Z,2948
2022-12-14T12:52:31.078Z,2960
2022-12-14T12:53:31.050Z,2972
2022-12-14T12:54:31.299Z,2948
2022-12-14T12:55:31.527Z,2856
2022-12-14T12:56:30.747Z,2716
2022-12-14T12:57:31.482Z,2616
2022-12-14T12:58:32.094Z,2616
2022-12-14T12:59:31.204Z,2648
2022-12-14T13:00:31.175Z,2692
2022-12-14T13:01:31.854Z,2728
2022-12-14T13:02:31.662Z,2748
2022-12-14T13:03:31.685Z,2704
2022-12-14T13:04:31.365Z,2632
2022-12-14T13:06:01.316Z,2500
2022-12-14T13:06:31.571Z,2476
2022-12-14T13:07:31.285Z,2512
2022-12-14T13:08:33.043Z,2552
2022-12-14T13:09:31.769Z,2536
2022-12-14T13:10:31.489Z,2484
2022-12-14T13:11:34.022Z,2420
2022-12-14T13:12:31.202Z,2340
2022-12-14T13:13:31.425Z,2220
2022-12-14T13:14:31.404Z,2120
2022-12-14T13:15:31.764Z,2068
2022-12-14T13:16:34.852Z,2040
2022-12-14T13:17:31.085Z,2036
2022-12-14T13:19:50.106Z,2036
2022-12-14T13:20:05.007Z,2024
2022-12-14T13:21:03.190Z,1968
2022-12-14T13:22:17.370Z,1908
2022-12-14T13:23:48.253Z,1852
2022-12-14T13:24:03.387Z,1844
2022-12-14T13:25:06.476Z,1808
2022-12-14T13:26:03.598Z,1784
2022-12-14T13:27:05.263Z,1760
2022-12-14T13:28:02.781Z,1736
2022-12-14T13:29:03.013Z,1720
2022-12-14T13:30:03.256Z,1708
2022-12-14T13:31:03.816Z,1720
2022-12-14T13:32:03.463Z,1768
2022-12-14T13:33:03.448Z,1832
2022-12-14T13:34:03.442Z,1872
2022-12-14T13:35:03.208Z,1872
2022-12-14T13:36:03.138Z,1844
2022-12-14T13:37:03.359Z,1800
2022-12-14T13:38:03.110Z,1744
2022-12-14T13:39:03.071Z,1696
2022-12-14T13:40:02.796Z,1668
2022-12-14T13:41:03.289Z,1648
2022-12-14T13:42:03.017Z,1640
2022-12-14T13:43:03.243Z,1632
2022-12-14T13:44:02.978Z,1620
2022-12-14T13:45:02.939Z,1608
2022-12-14T13:46:03.048Z,1604
2022-12-14T13:47:03.078Z,1588
2022-12-14T13:48:02.527Z,1580
2022-12-14T13:49:03.155Z,1580
2022-12-14T13:50:59.473Z,1596
2022-12-14T13:51:12.504Z,1600
2022-12-14T13:52:12.237Z,1588
2022-12-14T13:53:11.950Z,1560
2022-12-14T13:54:12.550Z,1524
2022-12-14T13:55:12.432Z,1472
2022-12-14T13:56:12.143Z,1388
2022-12-14T13:57:12.166Z,1272
2022-12-14T13:58:11.868Z,1172
2022-12-14T13:59:12.094Z,1128
2022-12-14T14:00:11.881Z,1136
2022-12-14T14:01:12.524Z,1168
2022-12-14T14:02:15.582Z,1196
2022-12-14T14:03:12.689Z,1212
2022-12-14T14:04:12.996Z,1200
2022-12-14T14:05:12.227Z,1164
2022-12-14T14:06:11.955Z,1116
2022-12-14T14:07:11.938Z,1084
2022-12-14T14:08:11.914Z,1072
2022-12-14T14:09:11.897Z,1072
2022-12-14T14:10:12.360Z,1064
2022-12-14T14:11:43.905Z,1008
2022-12-14T14:12:12.071Z,976
2022-12-14T14:13:11.807Z,912
2022-12-14T14:14:11.520Z,892
2022-12-14T14:15:11.771Z,916
2022-12-14T14:16:35.226Z,932
2022-12-14T14:17:11.825Z,916
2022-12-14T14:18:11.474Z,876